Share

Perkins, GA (30822)

Plantation (KJYL) Elev 187 ft | 32.65 °N, 81.60 °W | Change Station
Active Advisory: Flash Flood Watch

Current weather conditions updated 22 minutes ago

Rain
Rain
55 °F
Feels Like 55 °F
N
9
Wind Variable Wind from ENE
Gusts 18 mph
Sunrise 6:54 AM
Sunset 8:00 PM
Moon Waning Gibbous

Tomorrow is forecast to be nearly the same temperature as today. Chance of showers.

Pressure 30.06 in
Visibility 7.0 miles
Clouds Mostly Cloudy 700 ft
Overcast 1100 ft
Dew Point 53 °F
Humidity 91%
Rainfall 0.00 in
Snow Depth Not available.
UV 0 out of 16
Pollen 6.30 out of 12
Air Quality Not available.
Flu Activity Sporadic
METAR KJYL 190015Z AUTO 06008G16KT 7SM RA BKN007 OVC011 13/12 A3006 RMK AO2 LTG DSNT SE T01300115

More Conditions Fewer Conditions

Pressure 30.06 in
Visibility 7.0 miles
Clouds Mostly Cloudy 700 ft
Overcast 1100 ft
Dew Point 53 °F
Humidity 91%
Rainfall 0.00 in
Snow Depth Not available.
UV 0 out of 16
Pollen 6.30 out of 12
Air Quality Not available.
Flu Activity Sporadic
METAR KJYL 190015Z AUTO 06008G16KT 7SM RA BKN007 OVC011 13/12 A3006 RMK AO2 LTG DSNT SE T01300115

More Conditions Fewer Conditions

10-Day Weather Forecast

Almanac

Astronomy

Apr. 18, 2014 Rise Set
Actual Time 6:54 AM EDT 8:00 PM EDT
Civil Twilight 6:29 AM EDT 8:25 PM EDT
Nautical Twilight 5:58 AM EDT 8:55 PM EDT
Astronomical Twilight 5:27 AM EDT 9:27 PM EDT
Moon 11:36 PM EDT (4/18) 9:22 AM EDT (4/18)
Length of Visible Light 13h 56m
Length of Day
13h 05m
Tomorrow will be 1m 53s longer.
Waning Gibbous, 84% of the Moon is Illuminated
Today
Waning Gibbous
Apr 22
Last Quarter
Apr 29
New
May 6
First Quarter
May 14
Full

Today's Extremes

State Highs State Lows

Community

  • Cloudy spring view
    Cloudy spring view
  • Old barn
    Old barn
  • What's for Lunch?
    What's for Lunch?
  • SUNRISE THROUGH THE TREES.
    SUNRISE THROUGH THE TREES.
  • Dog Wood Blossoms
    Dog Wood Blossoms

WunderPhotos

Upload Photos

1,702,551 photos uploaded!

WunderBlogs® & News

Nearby

Snow Depth

Station Depth Elevation
No new snow has been reported.

Coastal Water Temperatures

Place Temperature
No Stations Reporting

Earthquake Activity

City Distance Mag. Time & Date
No recent earthquake activity has been reported nearby.
Minimum magnitude displayed is 2.5.

Nearby Weather Stations

There are no personal weather stations in this area.

What do you think?

We're not finished. Please let us know what you like, what you don't like, and what you are still missing.